sensor_id;sensor_type;location;lat;lon;timestamp;P1;durP1;ratioP1;P2;durP2;ratioP2
57573;SDS011;63722;48.858;21.906;2022-11-03T00:01:41;2.30;;;2.20;;
57573;SDS011;63722;48.858;21.906;2022-11-03T00:04:09;2.22;;;2.13;;
57573;SDS011;63722;48.858;21.906;2022-11-03T00:06:39;2.33;;;2.22;;
57573;SDS011;63722;48.858;21.906;2022-11-03T00:09:07;2.50;;;2.40;;
57573;SDS011;63722;48.858;21.906;2022-11-03T00:11:34;2.30;;;2.20;;
57573;SDS011;63722;48.858;21.906;2022-11-03T00:14:01;2.53;;;2.42;;
57573;SDS011;63722;48.858;21.906;2022-11-03T00:16:27;2.38;;;2.28;;
57573;SDS011;63722;48.858;21.906;2022-11-03T00:18:53;2.70;;;2.50;;
57573;SDS011;63722;48.858;21.906;2022-11-03T00:21:18;2.63;;;2.42;;
57573;SDS011;63722;48.858;21.906;2022-11-03T00:23:44;2.30;;;2.20;;
57573;SDS011;63722;48.858;21.906;2022-11-03T00:26:16;2.25;;;2.15;;
57573;SDS011;63722;48.858;21.906;2022-11-03T00:28:48;3.15;;;2.95;;
57573;SDS011;63722;48.858;21.906;2022-11-03T00:31:16;2.80;;;2.70;;
57573;SDS011;63722;48.858;21.906;2022-11-03T00:33:52;2.65;;;2.50;;
57573;SDS011;63722;48.858;21.906;2022-11-03T00:36:28;2.20;;;2.10;;
57573;SDS011;63722;48.858;21.906;2022-11-03T00:38:58;2.80;;;2.60;;
57573;SDS011;63722;48.858;21.906;2022-11-03T00:41:24;2.28;;;2.17;;
57573;SDS011;63722;48.858;21.906;2022-11-03T00:43:50;2.33;;;2.22;;
57573;SDS011;63722;48.858;21.906;2022-11-03T00:46:16;2.78;;;2.63;;
57573;SDS011;63722;48.858;21.906;2022-11-03T00:48:43;3.05;;;2.42;;
57573;SDS011;63722;48.858;21.906;2022-11-03T00:53:38;2.38;;;2.28;;
57573;SDS011;63722;48.858;21.906;2022-11-03T00:56:05;2.10;;;2.00;;
57573;SDS011;63722;48.858;21.906;2022-11-03T00:58:33;2.55;;;2.35;;
57573;SDS011;63722;48.858;21.906;2022-11-03T01:01:06;3.03;;;2.42;;
57573;SDS011;63722;48.858;21.906;2022-11-03T01:03:44;2.55;;;2.45;;
57573;SDS011;63722;48.858;21.906;2022-11-03T01:06:34;2.40;;;2.20;;
57573;SDS011;63722;48.858;21.906;2022-11-03T01:09:14;2.38;;;2.20;;
57573;SDS011;63722;48.858;21.906;2022-11-03T01:11:39;2.42;;;2.33;;
57573;SDS011;63722;48.858;21.906;2022-11-03T01:14:13;2.20;;;2.10;;
57573;SDS011;63722;48.858;21.906;2022-11-03T01:16:39;2.80;;;2.60;;
57573;SDS011;63722;48.858;21.906;2022-11-03T01:19:05;2.30;;;2.20;;
57573;SDS011;63722;48.858;21.906;2022-11-03T01:21:31;2.30;;;2.20;;
57573;SDS011;63722;48.858;21.906;2022-11-03T01:23:59;2.72;;;2.53;;
57573;SDS011;63722;48.858;21.906;2022-11-03T01:26:26;2.30;;;2.20;;
57573;SDS011;63722;48.858;21.906;2022-11-03T01:28:51;2.17;;;2.08;;
57573;SDS011;63722;48.858;21.906;2022-11-03T01:31:18;2.63;;;2.45;;
57573;SDS011;63722;48.858;21.906;2022-11-03T01:33:45;2.47;;;2.38;;
57573;SDS011;63722;48.858;21.906;2022-11-03T01:36:11;2.35;;;2.25;;
57573;SDS011;63722;48.858;21.906;2022-11-03T01:38:38;2.53;;;2.35;;
57573;SDS011;63722;48.858;21.906;2022-11-03T01:41:05;2.63;;;2.42;;
57573;SDS011;63722;48.858;21.906;2022-11-03T01:43:32;2.50;;;2.40;;
57573;SDS011;63722;48.858;21.906;2022-11-03T01:48:56;2.60;;;2.40;;
57573;SDS011;63722;48.858;21.906;2022-11-03T01:51:28;2.80;;;2.60;;
57573;SDS011;63722;48.858;21.906;2022-11-03T01:53:57;2.90;;;2.35;;
57573;SDS011;63722;48.858;21.906;2022-11-03T01:56:25;2.50;;;2.40;;
57573;SDS011;63722;48.858;21.906;2022-11-03T01:58:53;2.40;;;2.30;;
57573;SDS011;63722;48.858;21.906;2022-11-03T02:01:19;3.30;;;2.40;;
57573;SDS011;63722;48.858;21.906;2022-11-03T02:03:47;2.97;;;2.17;;
57573;SDS011;63722;48.858;21.906;2022-11-03T02:06:17;2.30;;;2.20;;
57573;SDS011;63722;48.858;21.906;2022-11-03T02:08:47;2.63;;;2.47;;
57573;SDS011;63722;48.858;21.906;2022-11-03T02:11:16;2.50;;;2.30;;
57573;SDS011;63722;48.858;21.906;2022-11-03T02:14:00;2.60;;;2.50;;
57573;SDS011;63722;48.858;21.906;2022-11-03T02:16:25;2.33;;;2.22;;
57573;SDS011;63722;48.858;21.906;2022-11-03T02:18:55;2.47;;;2.38;;
57573;SDS011;63722;48.858;21.906;2022-11-03T02:21:37;2.50;;;2.40;;
57573;SDS011;63722;48.858;21.906;2022-11-03T02:24:13;2.30;;;2.20;;
57573;SDS011;63722;48.858;21.906;2022-11-03T02:27:01;2.63;;;2.50;;
57573;SDS011;63722;48.858;21.906;2022-11-03T02:29:26;2.40;;;2.30;;
57573;SDS011;63722;48.858;21.906;2022-11-03T02:31:57;2.40;;;2.25;;
57573;SDS011;63722;48.858;21.906;2022-11-03T02:34:34;2.55;;;2.20;;
57573;SDS011;63722;48.858;21.906;2022-11-03T02:37:07;2.42;;;2.33;;
57573;SDS011;63722;48.858;21.906;2022-11-03T02:39:42;2.72;;;2.53;;
57573;SDS011;63722;48.858;21.906;2022-11-03T02:42:11;2.40;;;2.30;;
57573;SDS011;63722;48.858;21.906;2022-11-03T02:44:39;2.25;;;2.15;;
57573;SDS011;63722;48.858;21.906;2022-11-03T02:47:08;2.45;;;2.35;;
57573;SDS011;63722;48.858;21.906;2022-11-03T02:49:37;2.75;;;2.65;;
57573;SDS011;63722;48.858;21.906;2022-11-03T02:52:05;2.83;;;2.63;;
57573;SDS011;63722;48.858;21.906;2022-11-03T02:54:32;2.70;;;2.50;;
57573;SDS011;63722;48.858;21.906;2022-11-03T02:59:48;2.90;;;2.70;;
57573;SDS011;63722;48.858;21.906;2022-11-03T03:02:23;2.55;;;2.45;;
57573;SDS011;63722;48.858;21.906;2022-11-03T03:04:57;2.90;;;2.70;;
57573;SDS011;63722;48.858;21.906;2022-11-03T03:07:29;2.80;;;2.60;;
57573;SDS011;63722;48.858;21.906;2022-11-03T03:12:26;2.95;;;2.67;;
57573;SDS011;63722;48.858;21.906;2022-11-03T03:14:52;2.80;;;2.60;;
57573;SDS011;63722;48.858;21.906;2022-11-03T03:20:02;2.60;;;2.45;;
57573;SDS011;63722;48.858;21.906;2022-11-03T03:22:46;2.70;;;2.50;;
57573;SDS011;63722;48.858;21.906;2022-11-03T03:25:29;2.60;;;2.50;;
57573;SDS011;63722;48.858;21.906;2022-11-03T03:28:07;2.80;;;2.60;;
57573;SDS011;63722;48.858;21.906;2022-11-03T03:30:35;2.67;;;2.58;;
57573;SDS011;63722;48.858;21.906;2022-11-03T03:33:02;2.38;;;2.28;;
57573;SDS011;63722;48.858;21.906;2022-11-03T03:35:31;2.55;;;2.45;;
57573;SDS011;63722;48.858;21.906;2022-11-03T03:38:02;2.75;;;2.55;;
57573;SDS011;63722;48.858;21.906;2022-11-03T03:40:33;2.85;;;2.65;;
57573;SDS011;63722;48.858;21.906;2022-11-03T03:43:01;2.22;;;2.13;;
57573;SDS011;63722;48.858;21.906;2022-11-03T03:45:30;2.42;;;2.25;;
57573;SDS011;63722;48.858;21.906;2022-11-03T03:47:58;2.58;;;2.47;;
57573;SDS011;63722;48.858;21.906;2022-11-03T03:50:24;2.60;;;2.50;;
57573;SDS011;63722;48.858;21.906;2022-11-03T03:52:54;2.80;;;2.70;;
57573;SDS011;63722;48.858;21.906;2022-11-03T03:55:21;2.55;;;2.45;;
57573;SDS011;63722;48.858;21.906;2022-11-03T03:57:57;2.50;;;2.40;;
57573;SDS011;63722;48.858;21.906;2022-11-03T04:00:23;2.42;;;2.33;;
57573;SDS011;63722;48.858;21.906;2022-11-03T04:02:48;2.50;;;2.40;;
57573;SDS011;63722;48.858;21.906;2022-11-03T04:05:13;2.50;;;2.35;;
57573;SDS011;63722;48.858;21.906;2022-11-03T04:07:39;2.75;;;2.65;;
57573;SDS011;63722;48.858;21.906;2022-11-03T04:10:14;2.60;;;2.35;;
57573;SDS011;63722;48.858;21.906;2022-11-03T04:12:41;2.70;;;2.60;;
57573;SDS011;63722;48.858;21.906;2022-11-03T04:15:26;2.33;;;2.22;;
57573;SDS011;63722;48.858;21.906;2022-11-03T04:18:10;2.33;;;2.22;;
57573;SDS011;63722;48.858;21.906;2022-11-03T04:20:54;3.00;;;2.80;;
57573;SDS011;63722;48.858;21.906;2022-11-03T04:23:38;2.60;;;2.47;;
57573;SDS011;63722;48.858;21.906;2022-11-03T04:26:05;2.40;;;2.30;;
57573;SDS011;63722;48.858;21.906;2022-11-03T04:28:36;2.37;;;2.27;;
57573;SDS011;63722;48.858;21.906;2022-11-03T04:31:01;2.70;;;2.60;;
57573;SDS011;63722;48.858;21.906;2022-11-03T04:33:27;2.45;;;2.35;;
57573;SDS011;63722;48.858;21.906;2022-11-03T04:35:54;2.35;;;2.25;;
57573;SDS011;63722;48.858;21.906;2022-11-03T04:38:22;2.45;;;2.35;;
57573;SDS011;63722;48.858;21.906;2022-11-03T04:40:54;2.30;;;2.20;;
57573;SDS011;63722;48.858;21.906;2022-11-03T04:43:43;2.67;;;2.40;;
57573;SDS011;63722;48.858;21.906;2022-11-03T04:46:09;2.50;;;2.40;;
57573;SDS011;63722;48.858;21.906;2022-11-03T04:48:36;2.50;;;2.33;;
57573;SDS011;63722;48.858;21.906;2022-11-03T04:51:08;2.13;;;2.03;;
57573;SDS011;63722;48.858;21.906;2022-11-03T04:53:41;2.50;;;2.40;;
57573;SDS011;63722;48.858;21.906;2022-11-03T04:56:12;2.30;;;2.20;;
57573;SDS011;63722;48.858;21.906;2022-11-03T04:58:40;2.47;;;2.38;;
57573;SDS011;63722;48.858;21.906;2022-11-03T05:01:05;2.47;;;2.38;;
57573;SDS011;63722;48.858;21.906;2022-11-03T05:03:37;2.45;;;2.35;;
57573;SDS011;63722;48.858;21.906;2022-11-03T05:06:09;2.80;;;2.70;;
57573;SDS011;63722;48.858;21.906;2022-11-03T05:08:39;2.50;;;2.40;;
57573;SDS011;63722;48.858;21.906;2022-11-03T05:11:13;2.30;;;2.20;;
57573;SDS011;63722;48.858;21.906;2022-11-03T05:13:43;2.58;;;2.42;;
57573;SDS011;63722;48.858;21.906;2022-11-03T05:16:08;2.35;;;2.25;;
57573;SDS011;63722;48.858;21.906;2022-11-03T05:18:38;2.35;;;2.25;;
57573;SDS011;63722;48.858;21.906;2022-11-03T05:21:08;2.42;;;2.33;;
57573;SDS011;63722;48.858;21.906;2022-11-03T05:23:37;2.45;;;2.35;;
57573;SDS011;63722;48.858;21.906;2022-11-03T05:26:04;2.50;;;2.30;;
57573;SDS011;63722;48.858;21.906;2022-11-03T05:28:38;2.00;;;1.90;;
57573;SDS011;63722;48.858;21.906;2022-11-03T05:31:40;2.28;;;2.17;;
57573;SDS011;63722;48.858;21.906;2022-11-03T05:34:00;2.30;;;2.15;;
57573;SDS011;63722;48.858;21.906;2022-11-03T05:36:30;2.40;;;2.30;;
57573;SDS011;63722;48.858;21.906;2022-11-03T05:38:57;2.50;;;2.30;;
57573;SDS011;63722;48.858;21.906;2022-11-03T05:41:37;2.25;;;2.15;;
57573;SDS011;63722;48.858;21.906;2022-11-03T05:44:18;2.05;;;1.95;;
57573;SDS011;63722;48.858;21.906;2022-11-03T05:49:12;2.35;;;2.25;;
57573;SDS011;63722;48.858;21.906;2022-11-03T05:51:37;2.17;;;2.08;;
57573;SDS011;63722;48.858;21.906;2022-11-03T05:54:06;2.42;;;2.30;;
57573;SDS011;63722;48.858;21.906;2022-11-03T05:56:41;2.70;;;2.60;;
57573;SDS011;63722;48.858;21.906;2022-11-03T05:59:09;2.40;;;2.30;;
57573;SDS011;63722;48.858;21.906;2022-11-03T06:01:37;2.05;;;1.95;;
57573;SDS011;63722;48.858;21.906;2022-11-03T06:04:11;11.20;;;3.95;;
57573;SDS011;63722;48.858;21.906;2022-11-03T06:06:42;5.00;;;4.60;;
57573;SDS011;63722;48.858;21.906;2022-11-03T06:09:18;6.70;;;5.03;;
57573;SDS011;63722;48.858;21.906;2022-11-03T06:11:47;3.97;;;3.67;;
57573;SDS011;63722;48.858;21.906;2022-11-03T06:14:22;5.07;;;3.58;;
57573;SDS011;63722;48.858;21.906;2022-11-03T06:16:50;5.85;;;3.35;;
57573;SDS011;63722;48.858;21.906;2022-11-03T06:19:28;6.25;;;3.53;;
57573;SDS011;63722;48.858;21.906;2022-11-03T06:21:57;3.80;;;3.22;;
57573;SDS011;63722;48.858;21.906;2022-11-03T06:24:28;6.35;;;3.47;;
57573;SDS011;63722;48.858;21.906;2022-11-03T06:26:56;3.25;;;2.97;;
57573;SDS011;63722;48.858;21.906;2022-11-03T06:29:22;3.50;;;3.20;;
57573;SDS011;63722;48.858;21.906;2022-11-03T06:31:49;3.22;;;2.92;;
57573;SDS011;63722;48.858;21.906;2022-11-03T06:34:40;5.07;;;3.38;;
57573;SDS011;63722;48.858;21.906;2022-11-03T06:39:47;5.40;;;3.00;;
57573;SDS011;63722;48.858;21.906;2022-11-03T06:42:14;2.95;;;2.75;;
57573;SDS011;63722;48.858;21.906;2022-11-03T06:44:41;2.90;;;2.70;;
57573;SDS011;63722;48.858;21.906;2022-11-03T06:47:18;4.63;;;2.95;;
57573;SDS011;63722;48.858;21.906;2022-11-03T06:49:49;7.80;;;3.45;;
57573;SDS011;63722;48.858;21.906;2022-11-03T06:52:25;18.63;;;3.80;;
57573;SDS011;63722;48.858;21.906;2022-11-03T06:55:00;7.25;;;3.03;;
57573;SDS011;63722;48.858;21.906;2022-11-03T06:57:34;23.40;;;2.92;;
57573;SDS011;63722;48.858;21.906;2022-11-03T07:00:12;16.75;;;3.30;;
57573;SDS011;63722;48.858;21.906;2022-11-03T07:03:00;8.98;;;3.00;;
57573;SDS011;63722;48.858;21.906;2022-11-03T07:05:31;7.45;;;2.95;;
57573;SDS011;63722;48.858;21.906;2022-11-03T07:07:58;14.32;;;3.00;;
57573;SDS011;63722;48.858;21.906;2022-11-03T07:10:27;12.30;;;3.38;;
57573;SDS011;63722;48.858;21.906;2022-11-03T07:12:55;6.15;;;2.75;;
57573;SDS011;63722;48.858;21.906;2022-11-03T07:15:30;4.18;;;2.83;;
57573;SDS011;63722;48.858;21.906;2022-11-03T07:17:58;7.47;;;3.13;;
57573;SDS011;63722;48.858;21.906;2022-11-03T07:20:24;3.92;;;2.97;;
57573;SDS011;63722;48.858;21.906;2022-11-03T07:22:51;3.28;;;2.55;;
57573;SDS011;63722;48.858;21.906;2022-11-03T07:25:18;7.13;;;2.70;;
57573;SDS011;63722;48.858;21.906;2022-11-03T07:27:45;4.53;;;2.67;;
57573;SDS011;63722;48.858;21.906;2022-11-03T07:30:27;5.00;;;2.88;;
57573;SDS011;63722;48.858;21.906;2022-11-03T07:32:56;3.75;;;2.47;;
57573;SDS011;63722;48.858;21.906;2022-11-03T07:38:00;8.57;;;2.70;;
57573;SDS011;63722;48.858;21.906;2022-11-03T07:40:27;3.28;;;2.83;;
57573;SDS011;63722;48.858;21.906;2022-11-03T07:42:57;4.38;;;2.45;;
57573;SDS011;63722;48.858;21.906;2022-11-03T07:45:41;4.22;;;2.53;;
57573;SDS011;63722;48.858;21.906;2022-11-03T07:48:50;3.70;;;2.87;;
57573;SDS011;63722;48.858;21.906;2022-11-03T07:50:59;8.05;;;2.45;;
57573;SDS011;63722;48.858;21.906;2022-11-03T07:53:41;4.03;;;2.45;;
57573;SDS011;63722;48.858;21.906;2022-11-03T07:56:15;3.13;;;2.85;;
57573;SDS011;63722;48.858;21.906;2022-11-03T07:58:48;6.07;;;2.40;;
57573;SDS011;63722;48.858;21.906;2022-11-03T08:03:50;3.88;;;2.60;;
57573;SDS011;63722;48.858;21.906;2022-11-03T08:06:19;5.55;;;2.40;;
57573;SDS011;63722;48.858;21.906;2022-11-03T08:08:44;3.03;;;2.35;;
57573;SDS011;63722;48.858;21.906;2022-11-03T08:11:10;3.10;;;2.13;;
57573;SDS011;63722;48.858;21.906;2022-11-03T08:13:35;2.42;;;2.10;;
57573;SDS011;63722;48.858;21.906;2022-11-03T08:16:00;4.03;;;2.22;;
57573;SDS011;63722;48.858;21.906;2022-11-03T08:18:26;3.42;;;2.28;;
57573;SDS011;63722;48.858;21.906;2022-11-03T08:20:51;11.85;;;2.58;;
57573;SDS011;63722;48.858;21.906;2022-11-03T08:23:17;2.63;;;2.42;;
57573;SDS011;63722;48.858;21.906;2022-11-03T08:25:43;2.75;;;2.50;;
57573;SDS011;63722;48.858;21.906;2022-11-03T08:28:09;4.20;;;2.30;;
57573;SDS011;63722;48.858;21.906;2022-11-03T08:30:34;4.07;;;2.65;;
57573;SDS011;63722;48.858;21.906;2022-11-03T08:33:00;5.38;;;2.63;;
57573;SDS011;63722;48.858;21.906;2022-11-03T08:35:25;2.97;;;2.35;;
57573;SDS011;63722;48.858;21.906;2022-11-03T08:37:51;5.35;;;2.17;;
57573;SDS011;63722;48.858;21.906;2022-11-03T08:40:16;3.15;;;2.05;;
57573;SDS011;63722;48.858;21.906;2022-11-03T08:42:42;6.13;;;2.40;;
57573;SDS011;63722;48.858;21.906;2022-11-03T08:45:09;6.03;;;2.08;;
57573;SDS011;63722;48.858;21.906;2022-11-03T08:47:35;9.13;;;2.40;;
57573;SDS011;63722;48.858;21.906;2022-11-03T08:50:00;3.67;;;1.90;;
57573;SDS011;63722;48.858;21.906;2022-11-03T08:52:26;3.17;;;2.05;;
57573;SDS011;63722;48.858;21.906;2022-11-03T08:54:51;5.47;;;2.85;;
57573;SDS011;63722;48.858;21.906;2022-11-03T08:57:17;2.85;;;2.35;;
57573;SDS011;63722;48.858;21.906;2022-11-03T08:59:42;2.38;;;2.17;;
57573;SDS011;63722;48.858;21.906;2022-11-03T09:02:08;2.63;;;2.33;;
57573;SDS011;63722;48.858;21.906;2022-11-03T09:04:33;8.38;;;2.40;;
57573;SDS011;63722;48.858;21.906;2022-11-03T09:06:58;7.78;;;2.50;;
57573;SDS011;63722;48.858;21.906;2022-11-03T09:09:24;9.43;;;2.50;;
57573;SDS011;63722;48.858;21.906;2022-11-03T09:11:49;8.13;;;2.22;;
57573;SDS011;63722;48.858;21.906;2022-11-03T09:14:14;3.85;;;2.58;;
57573;SDS011;63722;48.858;21.906;2022-11-03T09:16:41;12.13;;;2.42;;
57573;SDS011;63722;48.858;21.906;2022-11-03T09:19:06;4.35;;;2.00;;
57573;SDS011;63722;48.858;21.906;2022-11-03T09:21:31;4.80;;;2.20;;
57573;SDS011;63722;48.858;21.906;2022-11-03T09:23:57;7.25;;;2.30;;
57573;SDS011;63722;48.858;21.906;2022-11-03T09:26:24;7.43;;;2.20;;
57573;SDS011;63722;48.858;21.906;2022-11-03T09:28:50;11.52;;;2.35;;
57573;SDS011;63722;48.858;21.906;2022-11-03T09:31:15;3.90;;;2.10;;
57573;SDS011;63722;48.858;21.906;2022-11-03T09:33:41;7.43;;;2.22;;
57573;SDS011;63722;48.858;21.906;2022-11-03T09:36:07;4.75;;;2.38;;
57573;SDS011;63722;48.858;21.906;2022-11-03T09:38:32;2.95;;;2.00;;
57573;SDS011;63722;48.858;21.906;2022-11-03T09:40:57;3.08;;;2.13;;
57573;SDS011;63722;48.858;21.906;2022-11-03T09:43:23;15.80;;;3.00;;
57573;SDS011;63722;48.858;21.906;2022-11-03T09:45:49;6.13;;;2.33;;
57573;SDS011;63722;48.858;21.906;2022-11-03T09:48:14;12.32;;;2.70;;
57573;SDS011;63722;48.858;21.906;2022-11-03T09:50:40;14.45;;;2.72;;
57573;SDS011;63722;48.858;21.906;2022-11-03T09:53:08;16.80;;;2.58;;
57573;SDS011;63722;48.858;21.906;2022-11-03T09:55:35;8.20;;;2.72;;
57573;SDS011;63722;48.858;21.906;2022-11-03T09:58:01;13.00;;;2.72;;
57573;SDS011;63722;48.858;21.906;2022-11-03T10:00:36;12.75;;;2.70;;
57573;SDS011;63722;48.858;21.906;2022-11-03T10:03:02;22.83;;;2.85;;
57573;SDS011;63722;48.858;21.906;2022-11-03T10:05:28;16.58;;;3.05;;
57573;SDS011;63722;48.858;21.906;2022-11-03T10:07:58;21.10;;;3.13;;
57573;SDS011;63722;48.858;21.906;2022-11-03T10:10:27;13.70;;;3.05;;
57573;SDS011;63722;48.858;21.906;2022-11-03T10:12:53;17.73;;;3.30;;
57573;SDS011;63722;48.858;21.906;2022-11-03T10:15:21;19.98;;;2.83;;
57573;SDS011;63722;48.858;21.906;2022-11-03T10:17:48;9.07;;;2.60;;
57573;SDS011;63722;48.858;21.906;2022-11-03T10:20:18;17.25;;;3.03;;
57573;SDS011;63722;48.858;21.906;2022-11-03T10:22:45;10.15;;;2.75;;
57573;SDS011;63722;48.858;21.906;2022-11-03T10:30:50;12.93;;;3.10;;
57573;SDS011;63722;48.858;21.906;2022-11-03T10:33:31;10.73;;;2.28;;
57573;SDS011;63722;48.858;21.906;2022-11-03T10:38:39;15.18;;;2.70;;
57573;SDS011;63722;48.858;21.906;2022-11-03T10:41:09;4.85;;;3.13;;
57573;SDS011;63722;48.858;21.906;2022-11-03T10:43:38;17.25;;;2.83;;
57573;SDS011;63722;48.858;21.906;2022-11-03T10:51:48;6.90;;;2.60;;
57573;SDS011;63722;48.858;21.906;2022-11-03T10:54:17;11.30;;;2.75;;
57573;SDS011;63722;48.858;21.906;2022-11-03T10:56:44;18.08;;;2.80;;
57573;SDS011;63722;48.858;21.906;2022-11-03T10:59:15;16.23;;;2.75;;
57573;SDS011;63722;48.858;21.906;2022-11-03T11:01:43;9.38;;;2.53;;
57573;SDS011;63722;48.858;21.906;2022-11-03T11:04:09;9.10;;;2.00;;
57573;SDS011;63722;48.858;21.906;2022-11-03T11:06:39;13.63;;;2.53;;
57573;SDS011;63722;48.858;21.906;2022-11-03T11:09:05;10.68;;;2.78;;
57573;SDS011;63722;48.858;21.906;2022-11-03T11:11:35;20.70;;;2.90;;
57573;SDS011;63722;48.858;21.906;2022-11-03T11:17:03;6.47;;;2.58;;
57573;SDS011;63722;48.858;21.906;2022-11-03T11:19:29;6.88;;;2.72;;
57573;SDS011;63722;48.858;21.906;2022-11-03T11:22:20;9.27;;;2.50;;
57573;SDS011;63722;48.858;21.906;2022-11-03T11:29:58;11.50;;;2.30;;
57573;SDS011;63722;48.858;21.906;2022-11-03T11:35:09;11.93;;;2.38;;
57573;SDS011;63722;48.858;21.906;2022-11-03T11:37:40;5.20;;;2.15;;
57573;SDS011;63722;48.858;21.906;2022-11-03T11:48:40;7.38;;;2.05;;
57573;SDS011;63722;48.858;21.906;2022-11-03T11:51:07;11.57;;;1.98;;
57573;SDS011;63722;48.858;21.906;2022-11-03T11:53:38;10.23;;;2.00;;
57573;SDS011;63722;48.858;21.906;2022-11-03T11:56:07;6.32;;;2.10;;
57573;SDS011;63722;48.858;21.906;2022-11-03T12:01:30;15.07;;;3.03;;
57573;SDS011;63722;48.858;21.906;2022-11-03T12:06:39;8.13;;;2.50;;
57573;SDS011;63722;48.858;21.906;2022-11-03T12:09:07;9.77;;;2.55;;
57573;SDS011;63722;48.858;21.906;2022-11-03T12:19:41;17.00;;;2.40;;
57573;SDS011;63722;48.858;21.906;2022-11-03T12:22:16;6.78;;;2.47;;
57573;SDS011;63722;48.858;21.906;2022-11-03T12:25:31;6.68;;;2.70;;
57573;SDS011;63722;48.858;21.906;2022-11-03T12:30:25;6.93;;;2.58;;
57573;SDS011;63722;48.858;21.906;2022-11-03T12:32:50;3.00;;;2.10;;
57573;SDS011;63722;48.858;21.906;2022-11-03T12:35:17;4.63;;;1.90;;
57573;SDS011;63722;48.858;21.906;2022-11-03T12:37:42;5.78;;;1.80;;
57573;SDS011;63722;48.858;21.906;2022-11-03T12:40:08;4.53;;;2.10;;
57573;SDS011;63722;48.858;21.906;2022-11-03T12:42:36;8.55;;;2.10;;
57573;SDS011;63722;48.858;21.906;2022-11-03T12:45:02;2.90;;;1.90;;
57573;SDS011;63722;48.858;21.906;2022-11-03T12:47:27;4.40;;;2.00;;
57573;SDS011;63722;48.858;21.906;2022-11-03T12:49:53;13.77;;;2.15;;
57573;SDS011;63722;48.858;21.906;2022-11-03T12:52:18;7.32;;;2.08;;
57573;SDS011;63722;48.858;21.906;2022-11-03T12:54:44;14.70;;;2.03;;
57573;SDS011;63722;48.858;21.906;2022-11-03T12:57:09;9.57;;;2.47;;
57573;SDS011;63722;48.858;21.906;2022-11-03T12:59:34;17.08;;;2.08;;
57573;SDS011;63722;48.858;21.906;2022-11-03T13:02:00;7.18;;;2.03;;
57573;SDS011;63722;48.858;21.906;2022-11-03T13:04:25;8.98;;;2.30;;
57573;SDS011;63722;48.858;21.906;2022-11-03T13:06:51;6.57;;;2.25;;
57573;SDS011;63722;48.858;21.906;2022-11-03T13:09:16;7.15;;;2.33;;
57573;SDS011;63722;48.858;21.906;2022-11-03T13:11:41;7.68;;;2.53;;
57573;SDS011;63722;48.858;21.906;2022-11-03T13:14:25;8.18;;;2.08;;
57573;SDS011;63722;48.858;21.906;2022-11-03T13:16:51;10.25;;;2.10;;
57573;SDS011;63722;48.858;21.906;2022-11-03T13:19:16;4.88;;;2.03;;
57573;SDS011;63722;48.858;21.906;2022-11-03T13:21:42;5.43;;;2.45;;
57573;SDS011;63722;48.858;21.906;2022-11-03T13:24:07;12.02;;;2.28;;
57573;SDS011;63722;48.858;21.906;2022-11-03T13:26:32;2.70;;;1.77;;
57573;SDS011;63722;48.858;21.906;2022-11-03T13:28:58;7.93;;;2.35;;
57573;SDS011;63722;48.858;21.906;2022-11-03T13:31:23;12.63;;;2.40;;
57573;SDS011;63722;48.858;21.906;2022-11-03T13:33:48;8.85;;;2.50;;
57573;SDS011;63722;48.858;21.906;2022-11-03T13:36:16;8.07;;;2.40;;
57573;SDS011;63722;48.858;21.906;2022-11-03T13:38:41;11.55;;;2.50;;
57573;SDS011;63722;48.858;21.906;2022-11-03T13:41:06;14.30;;;2.40;;
57573;SDS011;63722;48.858;21.906;2022-11-03T13:43:32;22.33;;;2.60;;
57573;SDS011;63722;48.858;21.906;2022-11-03T13:45:57;13.90;;;2.05;;
57573;SDS011;63722;48.858;21.906;2022-11-03T13:48:26;11.40;;;2.13;;
57573;SDS011;63722;48.858;21.906;2022-11-03T13:50:52;15.77;;;2.35;;
57573;SDS011;63722;48.858;21.906;2022-11-03T13:53:17;10.25;;;2.90;;
57573;SDS011;63722;48.858;21.906;2022-11-03T13:55:43;9.13;;;1.85;;
57573;SDS011;63722;48.858;21.906;2022-11-03T13:58:08;9.82;;;2.53;;
57573;SDS011;63722;48.858;21.906;2022-11-03T14:00:34;16.38;;;2.45;;
57573;SDS011;63722;48.858;21.906;2022-11-03T14:02:59;8.73;;;2.83;;
57573;SDS011;63722;48.858;21.906;2022-11-03T14:05:24;16.20;;;2.67;;
57573;SDS011;63722;48.858;21.906;2022-11-03T14:07:50;15.20;;;2.17;;
57573;SDS011;63722;48.858;21.906;2022-11-03T14:10:15;8.52;;;2.00;;
57573;SDS011;63722;48.858;21.906;2022-11-03T14:12:40;7.15;;;2.50;;
57573;SDS011;63722;48.858;21.906;2022-11-03T14:15:07;22.52;;;2.30;;
57573;SDS011;63722;48.858;21.906;2022-11-03T14:17:35;17.42;;;2.47;;
57573;SDS011;63722;48.858;21.906;2022-11-03T14:20:01;4.88;;;2.10;;
57573;SDS011;63722;48.858;21.906;2022-11-03T14:22:31;14.35;;;2.35;;
57573;SDS011;63722;48.858;21.906;2022-11-03T14:24:56;6.68;;;2.08;;
57573;SDS011;63722;48.858;21.906;2022-11-03T14:27:22;6.13;;;2.17;;
57573;SDS011;63722;48.858;21.906;2022-11-03T14:29:47;18.42;;;2.70;;
57573;SDS011;63722;48.858;21.906;2022-11-03T14:32:16;11.68;;;3.00;;
57573;SDS011;63722;48.858;21.906;2022-11-03T14:34:42;11.10;;;2.85;;
57573;SDS011;63722;48.858;21.906;2022-11-03T14:37:07;9.38;;;1.80;;
57573;SDS011;63722;48.858;21.906;2022-11-03T14:39:36;23.85;;;3.08;;
57573;SDS011;63722;48.858;21.906;2022-11-03T14:42:02;8.27;;;2.30;;
57573;SDS011;63722;48.858;21.906;2022-11-03T14:44:36;9.05;;;2.45;;
57573;SDS011;63722;48.858;21.906;2022-11-03T14:47:03;6.95;;;2.40;;
57573;SDS011;63722;48.858;21.906;2022-11-03T14:49:30;10.60;;;2.47;;
57573;SDS011;63722;48.858;21.906;2022-11-03T14:51:56;10.38;;;2.20;;
57573;SDS011;63722;48.858;21.906;2022-11-03T14:54:26;5.50;;;2.30;;
57573;SDS011;63722;48.858;21.906;2022-11-03T14:56:52;9.00;;;2.33;;
57573;SDS011;63722;48.858;21.906;2022-11-03T14:59:19;4.63;;;1.85;;
57573;SDS011;63722;48.858;21.906;2022-11-03T15:01:45;3.97;;;2.65;;
57573;SDS011;63722;48.858;21.906;2022-11-03T15:04:11;6.93;;;2.60;;
57573;SDS011;63722;48.858;21.906;2022-11-03T15:06:37;5.53;;;2.15;;
57573;SDS011;63722;48.858;21.906;2022-11-03T15:09:03;9.85;;;2.30;;
57573;SDS011;63722;48.858;21.906;2022-11-03T15:11:28;4.38;;;1.90;;
57573;SDS011;63722;48.858;21.906;2022-11-03T15:13:54;5.93;;;2.10;;
57573;SDS011;63722;48.858;21.906;2022-11-03T15:16:19;7.65;;;2.20;;
57573;SDS011;63722;48.858;21.906;2022-11-03T15:18:45;5.10;;;2.38;;
57573;SDS011;63722;48.858;21.906;2022-11-03T15:21:11;5.93;;;2.30;;
57573;SDS011;63722;48.858;21.906;2022-11-03T15:23:37;10.73;;;2.10;;
57573;SDS011;63722;48.858;21.906;2022-11-03T15:26:02;8.55;;;2.10;;
57573;SDS011;63722;48.858;21.906;2022-11-03T15:28:28;3.53;;;2.05;;
57573;SDS011;63722;48.858;21.906;2022-11-03T15:30:53;5.68;;;1.98;;
57573;SDS011;63722;48.858;21.906;2022-11-03T15:33:18;6.40;;;2.00;;
57573;SDS011;63722;48.858;21.906;2022-11-03T15:35:44;7.60;;;2.50;;
57573;SDS011;63722;48.858;21.906;2022-11-03T15:38:10;7.32;;;2.22;;
57573;SDS011;63722;48.858;21.906;2022-11-03T15:40:35;5.35;;;2.00;;
57573;SDS011;63722;48.858;21.906;2022-11-03T15:43:00;4.30;;;1.80;;
57573;SDS011;63722;48.858;21.906;2022-11-03T15:45:26;4.82;;;2.25;;
57573;SDS011;63722;48.858;21.906;2022-11-03T15:47:51;7.07;;;2.17;;
57573;SDS011;63722;48.858;21.906;2022-11-03T15:50:16;6.68;;;2.20;;
57573;SDS011;63722;48.858;21.906;2022-11-03T15:52:42;12.13;;;2.50;;
57573;SDS011;63722;48.858;21.906;2022-11-03T15:55:08;6.45;;;2.03;;